sensor_id;sensor_type;location;lat;lon;timestamp;temperature;humidity
14737;DHT22;7459;53.590;10.062;2023-07-02T00:01:47;16.70;99.90
14737;DHT22;7459;53.590;10.062;2023-07-02T00:04:14;16.80;99.90
14737;DHT22;7459;53.590;10.062;2023-07-02T00:06:44;16.70;99.90
14737;DHT22;7459;53.590;10.062;2023-07-02T00:09:14;16.70;99.90
14737;DHT22;7459;53.590;10.062;2023-07-02T00:11:42;16.70;99.90
14737;DHT22;7459;53.590;10.062;2023-07-02T00:14:09;16.70;99.90
14737;DHT22;7459;53.590;10.062;2023-07-02T00:16:38;16.70;99.90
14737;DHT22;7459;53.590;10.062;2023-07-02T00:19:08;16.60;99.90
14737;DHT22;7459;53.590;10.062;2023-07-02T00:21:33;16.50;99.90
14737;DHT22;7459;53.590;10.062;2023-07-02T00:24:00;16.60;99.90
14737;DHT22;7459;53.590;10.062;2023-07-02T00:26:27;16.60;99.90
14737;DHT22;7459;53.590;10.062;2023-07-02T00:28:54;16.50;99.90
14737;DHT22;7459;53.590;10.062;2023-07-02T00:31:20;16.50;99.90
14737;DHT22;7459;53.590;10.062;2023-07-02T00:33:46;16.50;99.90
14737;DHT22;7459;53.590;10.062;2023-07-02T00:36:13;16.60;99.90
14737;DHT22;7459;53.590;10.062;2023-07-02T00:38:44;16.60;99.90
14737;DHT22;7459;53.590;10.062;2023-07-02T00:41:12;16.60;99.90
14737;DHT22;7459;53.590;10.062;2023-07-02T00:43:38;16.60;99.90
14737;DHT22;7459;53.590;10.062;2023-07-02T00:46:20;16.60;99.90
14737;DHT22;7459;53.590;10.062;2023-07-02T00:48:47;16.60;99.90
14737;DHT22;7459;53.590;10.062;2023-07-02T00:51:17;16.50;99.90
14737;DHT22;7459;53.590;10.062;2023-07-02T00:53:45;16.50;99.90
14737;DHT22;7459;53.590;10.062;2023-07-02T00:56:11;16.50;99.90
14737;DHT22;7459;53.590;10.062;2023-07-02T00:58:42;16.50;99.90
14737;DHT22;7459;53.590;10.062;2023-07-02T01:01:17;16.50;99.90
14737;DHT22;7459;53.590;10.062;2023-07-02T01:06:27;16.50;99.90
14737;DHT22;7459;53.590;10.062;2023-07-02T01:09:05;16.50;99.90
14737;DHT22;7459;53.590;10.062;2023-07-02T01:11:33;16.60;99.90
14737;DHT22;7459;53.590;10.062;2023-07-02T01:14:24;16.50;99.90
14737;DHT22;7459;53.590;10.062;2023-07-02T01:16:53;16.50;99.90
14737;DHT22;7459;53.590;10.062;2023-07-02T01:22:24;16.60;99.90
14737;DHT22;7459;53.590;10.062;2023-07-02T01:24:52;16.50;99.90
14737;DHT22;7459;53.590;10.062;2023-07-02T01:27:19;16.50;99.90
14737;DHT22;7459;53.590;10.062;2023-07-02T01:29:45;16.50;99.90
14737;DHT22;7459;53.590;10.062;2023-07-02T01:32:15;16.50;99.90
14737;DHT22;7459;53.590;10.062;2023-07-02T01:34:41;16.50;99.90
14737;DHT22;7459;53.590;10.062;2023-07-02T01:37:09;16.50;99.90
14737;DHT22;7459;53.590;10.062;2023-07-02T01:39:35;16.50;99.90
14737;DHT22;7459;53.590;10.062;2023-07-02T01:42:12;16.50;99.90
14737;DHT22;7459;53.590;10.062;2023-07-02T01:44:38;16.50;99.90
14737;DHT22;7459;53.590;10.062;2023-07-02T01:47:04;16.50;99.90
14737;DHT22;7459;53.590;10.062;2023-07-02T01:49:30;16.50;99.90
14737;DHT22;7459;53.590;10.062;2023-07-02T01:51:57;16.50;99.90
14737;DHT22;7459;53.590;10.062;2023-07-02T01:54:24;16.40;99.90
14737;DHT22;7459;53.590;10.062;2023-07-02T01:56:52;16.50;99.90
14737;DHT22;7459;53.590;10.062;2023-07-02T01:59:19;16.50;99.90
14737;DHT22;7459;53.590;10.062;2023-07-02T02:01:44;16.40;99.90
14737;DHT22;7459;53.590;10.062;2023-07-02T02:06:46;16.50;99.90
14737;DHT22;7459;53.590;10.062;2023-07-02T02:09:11;16.50;99.90
14737;DHT22;7459;53.590;10.062;2023-07-02T02:11:40;16.50;99.90
14737;DHT22;7459;53.590;10.062;2023-07-02T02:14:07;16.50;99.90
14737;DHT22;7459;53.590;10.062;2023-07-02T02:16:33;16.50;99.90
14737;DHT22;7459;53.590;10.062;2023-07-02T02:18:59;16.50;99.90
14737;DHT22;7459;53.590;10.062;2023-07-02T02:21:25;16.50;99.90
14737;DHT22;7459;53.590;10.062;2023-07-02T02:23:51;16.50;99.90
14737;DHT22;7459;53.590;10.062;2023-07-02T02:26:17;16.60;99.90
14737;DHT22;7459;53.590;10.062;2023-07-02T02:28:42;16.50;99.90
14737;DHT22;7459;53.590;10.062;2023-07-02T02:31:09;16.50;99.90
14737;DHT22;7459;53.590;10.062;2023-07-02T02:33:35;16.40;99.90
14737;DHT22;7459;53.590;10.062;2023-07-02T02:36:01;16.50;99.90
14737;DHT22;7459;53.590;10.062;2023-07-02T02:38:28;16.40;99.90
14737;DHT22;7459;53.590;10.062;2023-07-02T02:40:53;16.40;99.90
14737;DHT22;7459;53.590;10.062;2023-07-02T02:43:19;16.40;99.90
14737;DHT22;7459;53.590;10.062;2023-07-02T02:45:46;16.40;99.90
14737;DHT22;7459;53.590;10.062;2023-07-02T02:48:12;16.40;99.90
14737;DHT22;7459;53.590;10.062;2023-07-02T02:50:37;16.40;99.90
14737;DHT22;7459;53.590;10.062;2023-07-02T02:53:10;16.30;99.90
14737;DHT22;7459;53.590;10.062;2023-07-02T02:55:36;16.30;99.90
14737;DHT22;7459;53.590;10.062;2023-07-02T02:58:02;16.30;99.90
14737;DHT22;7459;53.590;10.062;2023-07-02T03:00:28;16.20;99.90
14737;DHT22;7459;53.590;10.062;2023-07-02T03:02:54;16.20;99.90
14737;DHT22;7459;53.590;10.062;2023-07-02T03:05:21;16.20;99.90
14737;DHT22;7459;53.590;10.062;2023-07-02T03:07:50;16.10;99.90
14737;DHT22;7459;53.590;10.062;2023-07-02T03:10:16;16.20;99.90
14737;DHT22;7459;53.590;10.062;2023-07-02T03:12:41;16.20;99.90
14737;DHT22;7459;53.590;10.062;2023-07-02T03:15:07;16.20;99.90
14737;DHT22;7459;53.590;10.062;2023-07-02T03:17:34;16.20;99.90
14737;DHT22;7459;53.590;10.062;2023-07-02T03:20:00;16.20;99.90
14737;DHT22;7459;53.590;10.062;2023-07-02T03:22:26;16.10;99.90
14737;DHT22;7459;53.590;10.062;2023-07-02T03:24:52;16.10;99.90
14737;DHT22;7459;53.590;10.062;2023-07-02T03:27:17;16.10;99.90
14737;DHT22;7459;53.590;10.062;2023-07-02T03:29:43;16.10;99.90
14737;DHT22;7459;53.590;10.062;2023-07-02T03:32:09;16.10;99.90
14737;DHT22;7459;53.590;10.062;2023-07-02T03:34:34;16.10;99.90
14737;DHT22;7459;53.590;10.062;2023-07-02T03:37:00;16.00;99.90
14737;DHT22;7459;53.590;10.062;2023-07-02T03:39:26;16.10;99.90
14737;DHT22;7459;53.590;10.062;2023-07-02T03:41:51;16.00;99.90
14737;DHT22;7459;53.590;10.062;2023-07-02T03:44:17;16.10;99.90
14737;DHT22;7459;53.590;10.062;2023-07-02T03:46:44;16.00;99.90
14737;DHT22;7459;53.590;10.062;2023-07-02T03:49:10;16.10;99.90
14737;DHT22;7459;53.590;10.062;2023-07-02T03:51:36;16.10;99.90
14737;DHT22;7459;53.590;10.062;2023-07-02T03:54:01;16.10;99.90
14737;DHT22;7459;53.590;10.062;2023-07-02T03:56:27;16.10;99.90
14737;DHT22;7459;53.590;10.062;2023-07-02T03:58:53;16.10;99.90
14737;DHT22;7459;53.590;10.062;2023-07-02T04:01:19;16.10;99.90
14737;DHT22;7459;53.590;10.062;2023-07-02T04:03:48;16.10;99.90
14737;DHT22;7459;53.590;10.062;2023-07-02T04:06:15;16.10;99.90
14737;DHT22;7459;53.590;10.062;2023-07-02T04:08:41;16.10;99.90
14737;DHT22;7459;53.590;10.062;2023-07-02T04:11:07;16.10;99.90
14737;DHT22;7459;53.590;10.062;2023-07-02T04:13:32;16.10;99.90
14737;DHT22;7459;53.590;10.062;2023-07-02T04:15:58;16.10;99.90
14737;DHT22;7459;53.590;10.062;2023-07-02T04:18:24;16.10;99.90
14737;DHT22;7459;53.590;10.062;2023-07-02T04:20:50;16.10;99.90
14737;DHT22;7459;53.590;10.062;2023-07-02T04:23:15;16.00;99.90
14737;DHT22;7459;53.590;10.062;2023-07-02T04:25:41;16.00;99.90
14737;DHT22;7459;53.590;10.062;2023-07-02T04:28:07;16.10;99.90
14737;DHT22;7459;53.590;10.062;2023-07-02T04:30:33;16.10;99.90
14737;DHT22;7459;53.590;10.062;2023-07-02T04:32:58;16.10;99.90
14737;DHT22;7459;53.590;10.062;2023-07-02T04:35:24;16.00;99.90
14737;DHT22;7459;53.590;10.062;2023-07-02T04:37:50;16.00;99.90
14737;DHT22;7459;53.590;10.062;2023-07-02T04:40:15;16.00;99.90
14737;DHT22;7459;53.590;10.062;2023-07-02T04:42:42;16.10;99.90
14737;DHT22;7459;53.590;10.062;2023-07-02T04:45:13;16.00;99.90
14737;DHT22;7459;53.590;10.062;2023-07-02T04:47:42;16.10;99.90
14737;DHT22;7459;53.590;10.062;2023-07-02T04:50:08;16.10;99.90
14737;DHT22;7459;53.590;10.062;2023-07-02T04:52:34;16.10;99.90
14737;DHT22;7459;53.590;10.062;2023-07-02T04:54:59;16.10;99.90
14737;DHT22;7459;53.590;10.062;2023-07-02T04:57:25;16.10;99.90
14737;DHT22;7459;53.590;10.062;2023-07-02T04:59:51;16.10;99.90
14737;DHT22;7459;53.590;10.062;2023-07-02T05:02:17;16.10;99.90
14737;DHT22;7459;53.590;10.062;2023-07-02T05:04:43;16.10;99.90
14737;DHT22;7459;53.590;10.062;2023-07-02T05:07:08;16.10;99.90
14737;DHT22;7459;53.590;10.062;2023-07-02T05:09:34;16.20;99.90
14737;DHT22;7459;53.590;10.062;2023-07-02T05:12:00;16.20;99.90
14737;DHT22;7459;53.590;10.062;2023-07-02T05:14:25;16.10;99.90
14737;DHT22;7459;53.590;10.062;2023-07-02T05:16:51;16.20;99.90
14737;DHT22;7459;53.590;10.062;2023-07-02T05:19:16;16.20;99.90
14737;DHT22;7459;53.590;10.062;2023-07-02T05:21:42;16.20;99.90
14737;DHT22;7459;53.590;10.062;2023-07-02T05:24:08;16.20;99.90
14737;DHT22;7459;53.590;10.062;2023-07-02T05:26:34;16.20;99.90
14737;DHT22;7459;53.590;10.062;2023-07-02T05:29:00;16.20;99.90
14737;DHT22;7459;53.590;10.062;2023-07-02T05:31:26;16.20;99.90
14737;DHT22;7459;53.590;10.062;2023-07-02T05:33:53;16.30;99.90
14737;DHT22;7459;53.590;10.062;2023-07-02T05:36:20;16.20;99.90
14737;DHT22;7459;53.590;10.062;2023-07-02T05:38:46;16.20;99.90
14737;DHT22;7459;53.590;10.062;2023-07-02T05:41:18;16.30;99.90
14737;DHT22;7459;53.590;10.062;2023-07-02T05:43:44;16.30;99.90
14737;DHT22;7459;53.590;10.062;2023-07-02T05:46:10;16.30;99.90
14737;DHT22;7459;53.590;10.062;2023-07-02T05:48:35;16.20;99.90
14737;DHT22;7459;53.590;10.062;2023-07-02T05:51:02;16.20;99.90
14737;DHT22;7459;53.590;10.062;2023-07-02T05:53:27;16.20;99.90
14737;DHT22;7459;53.590;10.062;2023-07-02T05:55:53;16.30;99.90
14737;DHT22;7459;53.590;10.062;2023-07-02T05:58:19;16.30;99.90
14737;DHT22;7459;53.590;10.062;2023-07-02T06:00:44;16.30;99.90
14737;DHT22;7459;53.590;10.062;2023-07-02T06:03:15;16.40;99.90
14737;DHT22;7459;53.590;10.062;2023-07-02T06:05:46;16.40;99.90
14737;DHT22;7459;53.590;10.062;2023-07-02T06:08:13;16.40;99.90
14737;DHT22;7459;53.590;10.062;2023-07-02T06:10:39;16.40;99.90
14737;DHT22;7459;53.590;10.062;2023-07-02T06:13:04;16.40;99.90
14737;DHT22;7459;53.590;10.062;2023-07-02T06:15:30;16.50;99.90
14737;DHT22;7459;53.590;10.062;2023-07-02T06:17:56;16.50;99.90
14737;DHT22;7459;53.590;10.062;2023-07-02T06:20:22;16.50;99.90
14737;DHT22;7459;53.590;10.062;2023-07-02T06:22:47;16.60;99.90
14737;DHT22;7459;53.590;10.062;2023-07-02T06:25:13;16.50;99.90
14737;DHT22;7459;53.590;10.062;2023-07-02T06:27:39;16.60;99.90
14737;DHT22;7459;53.590;10.062;2023-07-02T06:30:05;16.60;99.90
14737;DHT22;7459;53.590;10.062;2023-07-02T06:32:31;16.70;99.90
14737;DHT22;7459;53.590;10.062;2023-07-02T06:34:57;16.70;99.90
14737;DHT22;7459;53.590;10.062;2023-07-02T06:37:23;16.70;99.90
14737;DHT22;7459;53.590;10.062;2023-07-02T06:39:49;16.70;99.90
14737;DHT22;7459;53.590;10.062;2023-07-02T06:42:14;16.70;99.90
14737;DHT22;7459;53.590;10.062;2023-07-02T06:44:41;16.80;99.90
14737;DHT22;7459;53.590;10.062;2023-07-02T06:47:07;16.80;99.90
14737;DHT22;7459;53.590;10.062;2023-07-02T06:49:33;16.80;99.90
14737;DHT22;7459;53.590;10.062;2023-07-02T06:51:58;16.80;99.90
14737;DHT22;7459;53.590;10.062;2023-07-02T06:54:26;16.80;99.90
14737;DHT22;7459;53.590;10.062;2023-07-02T06:56:52;16.80;99.90
14737;DHT22;7459;53.590;10.062;2023-07-02T06:59:23;16.80;99.90
14737;DHT22;7459;53.590;10.062;2023-07-02T07:01:50;16.80;99.90
14737;DHT22;7459;53.590;10.062;2023-07-02T07:04:16;16.80;99.90
14737;DHT22;7459;53.590;10.062;2023-07-02T07:06:42;16.90;99.90
14737;DHT22;7459;53.590;10.062;2023-07-02T07:09:08;16.90;99.90
14737;DHT22;7459;53.590;10.062;2023-07-02T07:11:34;16.90;99.90
14737;DHT22;7459;53.590;10.062;2023-07-02T07:14:00;16.80;99.90
14737;DHT22;7459;53.590;10.062;2023-07-02T07:16:26;16.80;99.90
14737;DHT22;7459;53.590;10.062;2023-07-02T07:18:52;16.80;99.90
14737;DHT22;7459;53.590;10.062;2023-07-02T07:21:18;16.80;99.90
14737;DHT22;7459;53.590;10.062;2023-07-02T07:23:43;16.80;99.90
14737;DHT22;7459;53.590;10.062;2023-07-02T07:26:09;16.80;99.90
14737;DHT22;7459;53.590;10.062;2023-07-02T07:28:35;16.80;99.90
14737;DHT22;7459;53.590;10.062;2023-07-02T07:31:01;16.80;99.90
14737;DHT22;7459;53.590;10.062;2023-07-02T07:33:27;16.80;99.90
14737;DHT22;7459;53.590;10.062;2023-07-02T07:35:53;16.80;99.90
14737;DHT22;7459;53.590;10.062;2023-07-02T07:38:18;16.80;99.90
14737;DHT22;7459;53.590;10.062;2023-07-02T07:40:44;16.80;99.90
14737;DHT22;7459;53.590;10.062;2023-07-02T07:43:10;16.80;99.90
14737;DHT22;7459;53.590;10.062;2023-07-02T07:45:36;16.80;99.90
14737;DHT22;7459;53.590;10.062;2023-07-02T07:48:03;16.80;99.90
14737;DHT22;7459;53.590;10.062;2023-07-02T07:50:30;16.80;99.90
14737;DHT22;7459;53.590;10.062;2023-07-02T07:52:55;16.80;99.90
14737;DHT22;7459;53.590;10.062;2023-07-02T07:55:21;16.80;99.90
14737;DHT22;7459;53.590;10.062;2023-07-02T07:57:47;16.80;99.90
14737;DHT22;7459;53.590;10.062;2023-07-02T08:00:13;16.90;99.90
14737;DHT22;7459;53.590;10.062;2023-07-02T08:02:39;16.90;99.90
14737;DHT22;7459;53.590;10.062;2023-07-02T08:05:05;16.90;99.90
14737;DHT22;7459;53.590;10.062;2023-07-02T08:07:32;16.90;99.90
14737;DHT22;7459;53.590;10.062;2023-07-02T08:09:58;17.00;99.90
14737;DHT22;7459;53.590;10.062;2023-07-02T08:12:25;17.00;99.90
14737;DHT22;7459;53.590;10.062;2023-07-02T08:14:52;17.00;99.90
14737;DHT22;7459;53.590;10.062;2023-07-02T08:17:18;17.00;99.90
14737;DHT22;7459;53.590;10.062;2023-07-02T08:19:44;17.10;99.90
14737;DHT22;7459;53.590;10.062;2023-07-02T08:22:10;17.10;99.90
14737;DHT22;7459;53.590;10.062;2023-07-02T08:24:35;17.10;99.90
14737;DHT22;7459;53.590;10.062;2023-07-02T08:27:01;17.20;99.90
14737;DHT22;7459;53.590;10.062;2023-07-02T08:29:29;17.20;99.90
14737;DHT22;7459;53.590;10.062;2023-07-02T08:31:55;17.20;99.90
14737;DHT22;7459;53.590;10.062;2023-07-02T08:34:21;17.20;99.90
14737;DHT22;7459;53.590;10.062;2023-07-02T08:36:47;17.10;99.90
14737;DHT22;7459;53.590;10.062;2023-07-02T08:39:12;17.10;99.90
14737;DHT22;7459;53.590;10.062;2023-07-02T08:41:44;17.10;99.90
14737;DHT22;7459;53.590;10.062;2023-07-02T08:44:11;17.10;99.90
14737;DHT22;7459;53.590;10.062;2023-07-02T08:46:41;17.20;99.90
14737;DHT22;7459;53.590;10.062;2023-07-02T08:49:08;17.20;99.90
14737;DHT22;7459;53.590;10.062;2023-07-02T08:51:34;17.20;99.90
14737;DHT22;7459;53.590;10.062;2023-07-02T08:54:01;17.20;99.90
14737;DHT22;7459;53.590;10.062;2023-07-02T08:56:28;17.30;99.90
14737;DHT22;7459;53.590;10.062;2023-07-02T08:58:54;17.40;99.90
14737;DHT22;7459;53.590;10.062;2023-07-02T09:01:20;17.40;99.90
14737;DHT22;7459;53.590;10.062;2023-07-02T09:03:45;17.50;99.90
14737;DHT22;7459;53.590;10.062;2023-07-02T09:06:12;17.60;99.90
14737;DHT22;7459;53.590;10.062;2023-07-02T09:08:38;17.60;99.90
14737;DHT22;7459;53.590;10.062;2023-07-02T09:11:08;17.70;99.90
14737;DHT22;7459;53.590;10.062;2023-07-02T09:13:49;17.60;99.90
14737;DHT22;7459;53.590;10.062;2023-07-02T09:19:04;17.60;99.90
14737;DHT22;7459;53.590;10.062;2023-07-02T09:21:48;17.50;99.90
14737;DHT22;7459;53.590;10.062;2023-07-02T09:26:49;17.40;99.90
14737;DHT22;7459;53.590;10.062;2023-07-02T09:29:20;17.20;99.90
14737;DHT22;7459;53.590;10.062;2023-07-02T09:31:50;17.00;99.90
14737;DHT22;7459;53.590;10.062;2023-07-02T09:34:16;16.90;99.90
14737;DHT22;7459;53.590;10.062;2023-07-02T09:36:43;16.60;99.90
14737;DHT22;7459;53.590;10.062;2023-07-02T09:39:14;16.50;99.90
14737;DHT22;7459;53.590;10.062;2023-07-02T09:41:45;16.30;99.90
14737;DHT22;7459;53.590;10.062;2023-07-02T09:44:15;16.30;99.90
14737;DHT22;7459;53.590;10.062;2023-07-02T09:46:58;16.30;99.90
14737;DHT22;7459;53.590;10.062;2023-07-02T09:49:39;16.30;99.90
14737;DHT22;7459;53.590;10.062;2023-07-02T09:52:08;16.40;99.90
14737;DHT22;7459;53.590;10.062;2023-07-02T09:54:36;16.40;99.90
14737;DHT22;7459;53.590;10.062;2023-07-02T09:57:03;16.40;99.90
14737;DHT22;7459;53.590;10.062;2023-07-02T09:59:29;16.50;99.90
14737;DHT22;7459;53.590;10.062;2023-07-02T10:01:56;16.60;99.90
14737;DHT22;7459;53.590;10.062;2023-07-02T10:04:22;16.80;99.90
14737;DHT22;7459;53.590;10.062;2023-07-02T10:06:57;16.90;99.90
14737;DHT22;7459;53.590;10.062;2023-07-02T10:09:43;17.00;99.90
14737;DHT22;7459;53.590;10.062;2023-07-02T10:12:16;17.20;99.90
14737;DHT22;7459;53.590;10.062;2023-07-02T10:14:43;17.30;99.90
14737;DHT22;7459;53.590;10.062;2023-07-02T10:17:09;17.40;99.90
14737;DHT22;7459;53.590;10.062;2023-07-02T10:19:35;17.50;99.90
14737;DHT22;7459;53.590;10.062;2023-07-02T10:22:04;17.60;99.90
14737;DHT22;7459;53.590;10.062;2023-07-02T10:24:33;17.60;99.90
14737;DHT22;7459;53.590;10.062;2023-07-02T10:27:00;17.60;99.90
14737;DHT22;7459;53.590;10.062;2023-07-02T10:29:28;17.60;99.90
14737;DHT22;7459;53.590;10.062;2023-07-02T10:31:58;17.70;99.90
14737;DHT22;7459;53.590;10.062;2023-07-02T10:34:34;17.70;99.90
14737;DHT22;7459;53.590;10.062;2023-07-02T10:37:01;17.70;99.90
14737;DHT22;7459;53.590;10.062;2023-07-02T10:39:29;17.70;99.90
14737;DHT22;7459;53.590;10.062;2023-07-02T10:42:08;17.70;99.90
14737;DHT22;7459;53.590;10.062;2023-07-02T10:44:46;17.70;99.90
14737;DHT22;7459;53.590;10.062;2023-07-02T10:47:15;17.60;99.90
14737;DHT22;7459;53.590;10.062;2023-07-02T10:49:41;17.60;99.90
14737;DHT22;7459;53.590;10.062;2023-07-02T10:52:07;17.60;99.90
14737;DHT22;7459;53.590;10.062;2023-07-02T10:54:44;17.60;99.90
14737;DHT22;7459;53.590;10.062;2023-07-02T10:57:14;17.60;99.90
14737;DHT22;7459;53.590;10.062;2023-07-02T10:59:41;17.60;99.90
14737;DHT22;7459;53.590;10.062;2023-07-02T11:02:08;17.60;99.90
14737;DHT22;7459;53.590;10.062;2023-07-02T11:04:35;17.50;99.90
14737;DHT22;7459;53.590;10.062;2023-07-02T11:07:01;17.50;99.90
14737;DHT22;7459;53.590;10.062;2023-07-02T11:09:27;17.50;99.90
14737;DHT22;7459;53.590;10.062;2023-07-02T11:11:55;17.50;99.90
14737;DHT22;7459;53.590;10.062;2023-07-02T11:14:34;17.60;99.90
14737;DHT22;7459;53.590;10.062;2023-07-02T11:17:05;17.70;99.90
14737;DHT22;7459;53.590;10.062;2023-07-02T11:19:32;17.80;99.90
14737;DHT22;7459;53.590;10.062;2023-07-02T11:21:58;17.90;99.90
14737;DHT22;7459;53.590;10.062;2023-07-02T11:26:56;18.00;99.90
14737;DHT22;7459;53.590;10.062;2023-07-02T11:29:22;18.00;99.90
14737;DHT22;7459;53.590;10.062;2023-07-02T11:31:48;18.00;99.90
14737;DHT22;7459;53.590;10.062;2023-07-02T11:34:20;18.00;99.90
14737;DHT22;7459;53.590;10.062;2023-07-02T11:36:47;18.00;99.90
14737;DHT22;7459;53.590;10.062;2023-07-02T11:39:14;18.00;99.90
14737;DHT22;7459;53.590;10.062;2023-07-02T11:41:43;18.00;99.90
14737;DHT22;7459;53.590;10.062;2023-07-02T11:44:09;18.10;99.90
14737;DHT22;7459;53.590;10.062;2023-07-02T11:46:35;18.10;99.90
14737;DHT22;7459;53.590;10.062;2023-07-02T11:49:02;18.20;99.90
14737;DHT22;7459;53.590;10.062;2023-07-02T11:51:30;18.30;99.90
14737;DHT22;7459;53.590;10.062;2023-07-02T11:53:56;18.40;99.90
14737;DHT22;7459;53.590;10.062;2023-07-02T11:56:23;18.40;99.90
14737;DHT22;7459;53.590;10.062;2023-07-02T11:58:49;18.40;99.90
14737;DHT22;7459;53.590;10.062;2023-07-02T12:01:14;18.30;99.90
14737;DHT22;7459;53.590;10.062;2023-07-02T12:03:40;18.30;99.90
14737;DHT22;7459;53.590;10.062;2023-07-02T12:06:06;18.30;99.90
14737;DHT22;7459;53.590;10.062;2023-07-02T12:08:31;18.20;99.90
14737;DHT22;7459;53.590;10.062;2023-07-02T12:10:57;18.10;99.90
14737;DHT22;7459;53.590;10.062;2023-07-02T12:13:23;18.00;99.90
14737;DHT22;7459;53.590;10.062;2023-07-02T12:15:48;17.90;99.90
14737;DHT22;7459;53.590;10.062;2023-07-02T12:18:16;17.90;99.90
14737;DHT22;7459;53.590;10.062;2023-07-02T12:20:42;17.70;99.90
14737;DHT22;7459;53.590;10.062;2023-07-02T12:23:09;17.70;99.90
14737;DHT22;7459;53.590;10.062;2023-07-02T12:25:36;17.60;99.90
14737;DHT22;7459;53.590;10.062;2023-07-02T12:28:03;17.60;99.90
14737;DHT22;7459;53.590;10.062;2023-07-02T12:30:30;17.70;99.90
14737;DHT22;7459;53.590;10.062;2023-07-02T12:32:56;17.70;99.90
14737;DHT22;7459;53.590;10.062;2023-07-02T12:35:22;17.80;99.90
14737;DHT22;7459;53.590;10.062;2023-07-02T12:37:50;18.00;99.90
14737;DHT22;7459;53.590;10.062;2023-07-02T12:40:18;18.10;99.90
14737;DHT22;7459;53.590;10.062;2023-07-02T12:42:46;18.20;99.90
14737;DHT22;7459;53.590;10.062;2023-07-02T12:45:13;18.30;99.90
14737;DHT22;7459;53.590;10.062;2023-07-02T12:47:41;18.40;99.90
14737;DHT22;7459;53.590;10.062;2023-07-02T12:50:08;18.60;99.90
14737;DHT22;7459;53.590;10.062;2023-07-02T12:52:34;18.70;99.90
14737;DHT22;7459;53.590;10.062;2023-07-02T12:55:00;18.80;99.90
14737;DHT22;7459;53.590;10.062;2023-07-02T12:57:26;18.90;99.90
14737;DHT22;7459;53.590;10.062;2023-07-02T12:59:53;19.00;99.90
14737;DHT22;7459;53.590;10.062;2023-07-02T13:02:20;19.10;99.90
14737;DHT22;7459;53.590;10.062;2023-07-02T13:04:49;19.20;99.90
14737;DHT22;7459;53.590;10.062;2023-07-02T13:07:16;19.20;99.90
14737;DHT22;7459;53.590;10.062;2023-07-02T13:09:42;19.30;99.90
14737;DHT22;7459;53.590;10.062;2023-07-02T13:12:08;19.30;99.90
14737;DHT22;7459;53.590;10.062;2023-07-02T13:14:35;19.30;99.90
14737;DHT22;7459;53.590;10.062;2023-07-02T13:17:00;19.30;99.90
14737;DHT22;7459;53.590;10.062;2023-07-02T13:19:28;19.20;99.90
14737;DHT22;7459;53.590;10.062;2023-07-02T13:21:54;19.20;99.90
14737;DHT22;7459;53.590;10.062;2023-07-02T13:24:19;19.20;99.90
14737;DHT22;7459;53.590;10.062;2023-07-02T13:26:45;19.30;99.90
14737;DHT22;7459;53.590;10.062;2023-07-02T13:29:11;19.40;99.90
14737;DHT22;7459;53.590;10.062;2023-07-02T13:31:36;19.40;99.90
14737;DHT22;7459;53.590;10.062;2023-07-02T13:34:02;19.50;99.90
14737;DHT22;7459;53.590;10.062;2023-07-02T13:36:28;19.50;99.90
14737;DHT22;7459;53.590;10.062;2023-07-02T13:38:54;19.60;99.90
14737;DHT22;7459;53.590;10.062;2023-07-02T13:41:20;19.60;99.60
14737;DHT22;7459;53.590;10.062;2023-07-02T13:43:46;19.70;99.60
14737;DHT22;7459;53.590;10.062;2023-07-02T13:46:11;19.80;99.90
14737;DHT22;7459;53.590;10.062;2023-07-02T13:48:38;19.80;99.30
14737;DHT22;7459;53.590;10.062;2023-07-02T13:51:04;19.80;98.80
14737;DHT22;7459;53.590;10.062;2023-07-02T13:53:30;19.90;98.70
14737;DHT22;7459;53.590;10.062;2023-07-02T13:55:55;19.80;98.70
14737;DHT22;7459;53.590;10.062;2023-07-02T13:58:22;19.90;98.70
14737;DHT22;7459;53.590;10.062;2023-07-02T14:00:48;19.90;98.30
14737;DHT22;7459;53.590;10.062;2023-07-02T14:03:14;20.00;98.70
14737;DHT22;7459;53.590;10.062;2023-07-02T14:05:40;20.00;98.60
14737;DHT22;7459;53.590;10.062;2023-07-02T14:08:05;20.10;98.80
14737;DHT22;7459;53.590;10.062;2023-07-02T14:10:31;20.00;98.80
14737;DHT22;7459;53.590;10.062;2023-07-02T14:12:57;20.00;99.10
14737;DHT22;7459;53.590;10.062;2023-07-02T14:15:24;19.80;99.20
14737;DHT22;7459;53.590;10.062;2023-07-02T14:17:50;19.80;99.10
14737;DHT22;7459;53.590;10.062;2023-07-02T14:20:17;19.80;98.90
14737;DHT22;7459;53.590;10.062;2023-07-02T14:22:42;19.80;99.40
14737;DHT22;7459;53.590;10.062;2023-07-02T14:25:08;19.80;99.40
14737;DHT22;7459;53.590;10.062;2023-07-02T14:27:34;19.80;99.70
14737;DHT22;7459;53.590;10.062;2023-07-02T14:30:00;19.80;99.80
14737;DHT22;7459;53.590;10.062;2023-07-02T14:32:33;19.80;99.30
14737;DHT22;7459;53.590;10.062;2023-07-02T14:35:00;19.70;98.80
14737;DHT22;7459;53.590;10.062;2023-07-02T14:37:27;19.60;98.90
14737;DHT22;7459;53.590;10.062;2023-07-02T14:39:53;19.50;98.70
14737;DHT22;7459;53.590;10.062;2023-07-02T14:42:18;19.50;98.90
14737;DHT22;7459;53.590;10.062;2023-07-02T14:44:44;19.40;99.00
14737;DHT22;7459;53.590;10.062;2023-07-02T14:47:10;19.40;99.10
14737;DHT22;7459;53.590;10.062;2023-07-02T14:49:36;19.40;99.50
14737;DHT22;7459;53.590;10.062;2023-07-02T14:52:02;19.40;99.30
14737;DHT22;7459;53.590;10.062;2023-07-02T14:54:28;19.40;99.50
14737;DHT22;7459;53.590;10.062;2023-07-02T14:56:54;19.40;99.60
14737;DHT22;7459;53.590;10.062;2023-07-02T14:59:19;19.40;99.90
14737;DHT22;7459;53.590;10.062;2023-07-02T15:01:45;19.40;99.90
14737;DHT22;7459;53.590;10.062;2023-07-02T15:04:11;19.30;99.90
14737;DHT22;7459;53.590;10.062;2023-07-02T15:06:36;19.30;99.90
14737;DHT22;7459;53.590;10.062;2023-07-02T15:09:02;19.30;99.90
14737;DHT22;7459;53.590;10.062;2023-07-02T15:11:28;19.30;99.90
14737;DHT22;7459;53.590;10.062;2023-07-02T15:13:53;19.40;99.90
14737;DHT22;7459;53.590;10.062;2023-07-02T15:16:19;19.40;99.90
14737;DHT22;7459;53.590;10.062;2023-07-02T15:18:46;19.40;99.90
14737;DHT22;7459;53.590;10.062;2023-07-02T15:21:12;19.30;99.90
14737;DHT22;7459;53.590;10.062;2023-07-02T15:23:38;19.30;99.90
14737;DHT22;7459;53.590;10.062;2023-07-02T15:26:05;19.20;99.90
14737;DHT22;7459;53.590;10.062;2023-07-02T15:28:31;19.20;99.90
14737;DHT22;7459;53.590;10.062;2023-07-02T15:31:03;19.20;99.90
14737;DHT22;7459;53.590;10.062;2023-07-02T15:33:30;19.10;99.90
14737;DHT22;7459;53.590;10.062;2023-07-02T15:35:59;19.10;99.90
14737;DHT22;7459;53.590;10.062;2023-07-02T15:38:25;19.10;99.90
14737;DHT22;7459;53.590;10.062;2023-07-02T15:41:04;19.10;99.90
14737;DHT22;7459;53.590;10.062;2023-07-02T15:43:41;19.20;99.90
14737;DHT22;7459;53.590;10.062;2023-07-02T15:46:09;19.20;99.90